sensor_id;sensor_type;location;lat;lon;timestamp;temperature;humidity
53294;DHT22;39181;53.440;5.644;2022-11-15T00:00:42;7.70;99.90
53294;DHT22;39181;53.440;5.644;2022-11-15T00:03:07;7.70;99.90
53294;DHT22;39181;53.440;5.644;2022-11-15T00:05:35;7.70;99.90
53294;DHT22;39181;53.440;5.644;2022-11-15T00:08:01;7.70;99.90
53294;DHT22;39181;53.440;5.644;2022-11-15T00:10:26;7.70;99.90
53294;DHT22;39181;53.440;5.644;2022-11-15T00:12:52;7.60;99.90
53294;DHT22;39181;53.440;5.644;2022-11-15T00:15:17;7.70;99.90
53294;DHT22;39181;53.440;5.644;2022-11-15T00:17:43;7.70;99.90
53294;DHT22;39181;53.440;5.644;2022-11-15T00:20:09;7.70;99.90
53294;DHT22;39181;53.440;5.644;2022-11-15T00:22:35;7.70;99.90
53294;DHT22;39181;53.440;5.644;2022-11-15T00:25:00;7.70;99.90
53294;DHT22;39181;53.440;5.644;2022-11-15T00:27:26;7.60;99.90
53294;DHT22;39181;53.440;5.644;2022-11-15T00:29:52;7.70;99.90
53294;DHT22;39181;53.440;5.644;2022-11-15T00:32:18;7.70;99.90
53294;DHT22;39181;53.440;5.644;2022-11-15T00:34:44;7.70;99.90
53294;DHT22;39181;53.440;5.644;2022-11-15T00:37:09;7.70;99.90
53294;DHT22;39181;53.440;5.644;2022-11-15T00:39:35;7.70;99.90
53294;DHT22;39181;53.440;5.644;2022-11-15T00:42:00;7.60;99.90
53294;DHT22;39181;53.440;5.644;2022-11-15T00:44:26;7.60;99.90
53294;DHT22;39181;53.440;5.644;2022-11-15T00:46:52;7.70;99.90
53294;DHT22;39181;53.440;5.644;2022-11-15T00:49:17;7.70;99.90
53294;DHT22;39181;53.440;5.644;2022-11-15T00:51:43;7.70;99.90
53294;DHT22;39181;53.440;5.644;2022-11-15T00:54:08;7.70;99.90
53294;DHT22;39181;53.440;5.644;2022-11-15T00:56:34;7.60;99.90
53294;DHT22;39181;53.440;5.644;2022-11-15T00:59:00;7.60;99.90
53294;DHT22;39181;53.440;5.644;2022-11-15T01:01:25;7.60;99.90
53294;DHT22;39181;53.440;5.644;2022-11-15T01:03:51;7.60;99.90
53294;DHT22;39181;53.440;5.644;2022-11-15T01:06:16;7.60;99.90
53294;DHT22;39181;53.440;5.644;2022-11-15T01:08:42;7.70;99.90
53294;DHT22;39181;53.440;5.644;2022-11-15T01:11:10;7.60;99.90
53294;DHT22;39181;53.440;5.644;2022-11-15T01:13:37;7.60;99.90
53294;DHT22;39181;53.440;5.644;2022-11-15T01:16:14;7.60;99.90
53294;DHT22;39181;53.440;5.644;2022-11-15T01:18:42;7.60;99.90
53294;DHT22;39181;53.440;5.644;2022-11-15T01:21:13;7.50;99.90
53294;DHT22;39181;53.440;5.644;2022-11-15T01:23:39;7.60;99.90
53294;DHT22;39181;53.440;5.644;2022-11-15T01:26:09;7.60;99.90
53294;DHT22;39181;53.440;5.644;2022-11-15T01:28:36;7.60;99.90
53294;DHT22;39181;53.440;5.644;2022-11-15T01:31:05;7.60;99.90
53294;DHT22;39181;53.440;5.644;2022-11-15T01:33:33;7.50;99.90
53294;DHT22;39181;53.440;5.644;2022-11-15T01:36:06;7.60;99.90
53294;DHT22;39181;53.440;5.644;2022-11-15T01:38:33;7.60;99.90
53294;DHT22;39181;53.440;5.644;2022-11-15T01:40:59;7.50;99.90
53294;DHT22;39181;53.440;5.644;2022-11-15T01:43:28;7.50;99.90
53294;DHT22;39181;53.440;5.644;2022-11-15T01:45:59;7.50;99.90
53294;DHT22;39181;53.440;5.644;2022-11-15T01:48:30;7.50;99.90
53294;DHT22;39181;53.440;5.644;2022-11-15T01:50:58;7.50;99.90
53294;DHT22;39181;53.440;5.644;2022-11-15T01:53:25;7.50;99.90
53294;DHT22;39181;53.440;5.644;2022-11-15T01:55:52;7.50;99.90
53294;DHT22;39181;53.440;5.644;2022-11-15T01:58:18;7.40;99.90
53294;DHT22;39181;53.440;5.644;2022-11-15T02:00:44;7.40;99.90
53294;DHT22;39181;53.440;5.644;2022-11-15T02:03:09;7.40;99.90
53294;DHT22;39181;53.440;5.644;2022-11-15T02:05:36;7.30;99.90
53294;DHT22;39181;53.440;5.644;2022-11-15T02:08:02;7.40;99.90
53294;DHT22;39181;53.440;5.644;2022-11-15T02:10:28;7.30;99.90
53294;DHT22;39181;53.440;5.644;2022-11-15T02:12:55;7.30;99.90
53294;DHT22;39181;53.440;5.644;2022-11-15T02:15:23;7.30;99.90
53294;DHT22;39181;53.440;5.644;2022-11-15T02:18:09;7.30;99.90
53294;DHT22;39181;53.440;5.644;2022-11-15T02:20:42;7.20;99.90
53294;DHT22;39181;53.440;5.644;2022-11-15T02:23:45;7.20;99.90
53294;DHT22;39181;53.440;5.644;2022-11-15T02:26:43;7.20;99.90
53294;DHT22;39181;53.440;5.644;2022-11-15T02:29:07;7.20;99.90
53294;DHT22;39181;53.440;5.644;2022-11-15T02:32:10;7.10;99.90
53294;DHT22;39181;53.440;5.644;2022-11-15T02:35:00;7.10;99.90
53294;DHT22;39181;53.440;5.644;2022-11-15T02:37:52;7.00;99.90
53294;DHT22;39181;53.440;5.644;2022-11-15T02:43:11;6.90;99.90
53294;DHT22;39181;53.440;5.644;2022-11-15T02:46:20;6.90;99.90
53294;DHT22;39181;53.440;5.644;2022-11-15T02:48:48;6.80;99.90
53294;DHT22;39181;53.440;5.644;2022-11-15T02:51:14;6.80;99.90
53294;DHT22;39181;53.440;5.644;2022-11-15T02:53:41;6.80;99.90
53294;DHT22;39181;53.440;5.644;2022-11-15T02:56:09;6.70;99.90
53294;DHT22;39181;53.440;5.644;2022-11-15T02:58:52;6.60;99.90
53294;DHT22;39181;53.440;5.644;2022-11-15T03:04:43;6.60;99.90
53294;DHT22;39181;53.440;5.644;2022-11-15T03:07:35;6.60;99.90
53294;DHT22;39181;53.440;5.644;2022-11-15T03:10:10;6.60;99.90
53294;DHT22;39181;53.440;5.644;2022-11-15T03:12:50;6.50;99.90
53294;DHT22;39181;53.440;5.644;2022-11-15T03:15:38;6.50;99.90
53294;DHT22;39181;53.440;5.644;2022-11-15T03:18:15;6.50;99.90
53294;DHT22;39181;53.440;5.644;2022-11-15T03:20:44;6.50;99.90
53294;DHT22;39181;53.440;5.644;2022-11-15T03:23:11;6.50;99.90
53294;DHT22;39181;53.440;5.644;2022-11-15T03:25:42;6.50;99.90
53294;DHT22;39181;53.440;5.644;2022-11-15T03:28:10;6.50;99.90
53294;DHT22;39181;53.440;5.644;2022-11-15T03:30:37;6.50;99.90
53294;DHT22;39181;53.440;5.644;2022-11-15T03:33:04;6.50;99.90
53294;DHT22;39181;53.440;5.644;2022-11-15T03:35:34;6.50;99.90
53294;DHT22;39181;53.440;5.644;2022-11-15T03:38:22;6.50;99.90
53294;DHT22;39181;53.440;5.644;2022-11-15T03:41:01;6.50;99.90
53294;DHT22;39181;53.440;5.644;2022-11-15T03:46:03;6.60;99.90
53294;DHT22;39181;53.440;5.644;2022-11-15T03:48:39;6.60;99.90
53294;DHT22;39181;53.440;5.644;2022-11-15T03:51:07;6.60;99.90
53294;DHT22;39181;53.440;5.644;2022-11-15T03:53:33;6.60;99.90
53294;DHT22;39181;53.440;5.644;2022-11-15T03:55:58;6.60;99.90
53294;DHT22;39181;53.440;5.644;2022-11-15T03:58:24;6.60;99.90
53294;DHT22;39181;53.440;5.644;2022-11-15T04:00:49;6.60;99.90
53294;DHT22;39181;53.440;5.644;2022-11-15T04:03:15;6.60;99.90
53294;DHT22;39181;53.440;5.644;2022-11-15T04:05:40;6.70;99.90
53294;DHT22;39181;53.440;5.644;2022-11-15T04:08:06;6.70;99.90
53294;DHT22;39181;53.440;5.644;2022-11-15T04:10:31;6.70;99.90
53294;DHT22;39181;53.440;5.644;2022-11-15T04:12:57;6.70;99.90
53294;DHT22;39181;53.440;5.644;2022-11-15T04:15:23;6.70;99.90
53294;DHT22;39181;53.440;5.644;2022-11-15T04:17:50;6.80;99.90
53294;DHT22;39181;53.440;5.644;2022-11-15T04:20:21;6.70;99.90
53294;DHT22;39181;53.440;5.644;2022-11-15T04:23:20;6.70;99.90
53294;DHT22;39181;53.440;5.644;2022-11-15T04:28:33;6.80;99.90
53294;DHT22;39181;53.440;5.644;2022-11-15T04:30:58;6.80;99.90
53294;DHT22;39181;53.440;5.644;2022-11-15T04:33:24;6.80;99.90
53294;DHT22;39181;53.440;5.644;2022-11-15T04:35:50;6.80;99.90
53294;DHT22;39181;53.440;5.644;2022-11-15T04:38:36;6.90;99.90
53294;DHT22;39181;53.440;5.644;2022-11-15T04:41:02;6.90;99.90
53294;DHT22;39181;53.440;5.644;2022-11-15T04:43:28;6.90;99.90
53294;DHT22;39181;53.440;5.644;2022-11-15T04:45:54;6.90;99.90
53294;DHT22;39181;53.440;5.644;2022-11-15T04:48:19;7.00;99.90
53294;DHT22;39181;53.440;5.644;2022-11-15T04:50:47;6.90;99.90
53294;DHT22;39181;53.440;5.644;2022-11-15T04:53:13;7.00;99.90
53294;DHT22;39181;53.440;5.644;2022-11-15T04:55:39;6.90;99.90
53294;DHT22;39181;53.440;5.644;2022-11-15T04:58:04;7.00;99.90
53294;DHT22;39181;53.440;5.644;2022-11-15T05:00:30;6.90;99.90
53294;DHT22;39181;53.440;5.644;2022-11-15T05:02:56;7.00;99.90
53294;DHT22;39181;53.440;5.644;2022-11-15T05:05:41;7.00;99.90
53294;DHT22;39181;53.440;5.644;2022-11-15T05:08:06;7.00;99.90
53294;DHT22;39181;53.440;5.644;2022-11-15T05:10:32;7.00;99.90
53294;DHT22;39181;53.440;5.644;2022-11-15T05:12:58;7.10;99.90
53294;DHT22;39181;53.440;5.644;2022-11-15T05:15:23;7.10;99.90
53294;DHT22;39181;53.440;5.644;2022-11-15T05:17:49;7.10;99.90
53294;DHT22;39181;53.440;5.644;2022-11-15T05:20:14;7.10;99.90
53294;DHT22;39181;53.440;5.644;2022-11-15T05:22:40;7.20;99.90
53294;DHT22;39181;53.440;5.644;2022-11-15T05:25:06;7.30;99.90
53294;DHT22;39181;53.440;5.644;2022-11-15T05:27:33;7.20;99.90
53294;DHT22;39181;53.440;5.644;2022-11-15T05:29:59;7.30;99.90
53294;DHT22;39181;53.440;5.644;2022-11-15T05:32:24;7.30;99.90
53294;DHT22;39181;53.440;5.644;2022-11-15T05:34:50;7.30;99.90
53294;DHT22;39181;53.440;5.644;2022-11-15T05:37:16;7.40;99.90
53294;DHT22;39181;53.440;5.644;2022-11-15T05:39:42;7.40;99.90
53294;DHT22;39181;53.440;5.644;2022-11-15T05:42:15;7.40;99.90
53294;DHT22;39181;53.440;5.644;2022-11-15T05:44:44;7.40;99.90
53294;DHT22;39181;53.440;5.644;2022-11-15T05:47:21;7.50;99.90
53294;DHT22;39181;53.440;5.644;2022-11-15T05:49:50;7.50;99.90
53294;DHT22;39181;53.440;5.644;2022-11-15T05:52:20;7.50;99.90
53294;DHT22;39181;53.440;5.644;2022-11-15T05:54:46;7.50;99.90
53294;DHT22;39181;53.440;5.644;2022-11-15T05:57:12;7.60;99.90
53294;DHT22;39181;53.440;5.644;2022-11-15T05:59:38;7.60;99.90
53294;DHT22;39181;53.440;5.644;2022-11-15T06:02:03;7.60;99.90
53294;DHT22;39181;53.440;5.644;2022-11-15T06:04:29;7.70;99.90
53294;DHT22;39181;53.440;5.644;2022-11-15T06:06:54;7.70;99.90
53294;DHT22;39181;53.440;5.644;2022-11-15T06:09:20;7.70;99.90
53294;DHT22;39181;53.440;5.644;2022-11-15T06:11:45;7.70;99.90
53294;DHT22;39181;53.440;5.644;2022-11-15T06:14:11;7.80;99.90
53294;DHT22;39181;53.440;5.644;2022-11-15T06:16:36;7.70;99.90
53294;DHT22;39181;53.440;5.644;2022-11-15T06:19:02;7.90;99.90
53294;DHT22;39181;53.440;5.644;2022-11-15T06:21:27;7.90;99.90
53294;DHT22;39181;53.440;5.644;2022-11-15T06:23:54;7.90;99.90
53294;DHT22;39181;53.440;5.644;2022-11-15T06:26:20;8.00;99.90
53294;DHT22;39181;53.440;5.644;2022-11-15T06:28:45;8.00;99.90
53294;DHT22;39181;53.440;5.644;2022-11-15T06:31:11;8.00;99.90
53294;DHT22;39181;53.440;5.644;2022-11-15T06:33:38;8.10;99.90
53294;DHT22;39181;53.440;5.644;2022-11-15T06:36:06;8.10;99.90
53294;DHT22;39181;53.440;5.644;2022-11-15T06:38:32;8.20;99.90
53294;DHT22;39181;53.440;5.644;2022-11-15T06:41:02;8.20;99.90
53294;DHT22;39181;53.440;5.644;2022-11-15T06:43:28;8.20;99.90
53294;DHT22;39181;53.440;5.644;2022-11-15T06:45:54;8.20;99.90
53294;DHT22;39181;53.440;5.644;2022-11-15T06:48:19;8.30;99.90
53294;DHT22;39181;53.440;5.644;2022-11-15T06:50:52;8.40;99.90
53294;DHT22;39181;53.440;5.644;2022-11-15T06:53:18;8.30;99.90
53294;DHT22;39181;53.440;5.644;2022-11-15T06:55:43;8.40;99.90
53294;DHT22;39181;53.440;5.644;2022-11-15T06:58:09;8.40;99.90
53294;DHT22;39181;53.440;5.644;2022-11-15T07:00:35;8.50;99.90
53294;DHT22;39181;53.440;5.644;2022-11-15T07:03:01;8.50;99.90
53294;DHT22;39181;53.440;5.644;2022-11-15T07:05:27;8.50;99.90
53294;DHT22;39181;53.440;5.644;2022-11-15T07:07:54;8.50;99.90
53294;DHT22;39181;53.440;5.644;2022-11-15T07:10:20;8.60;99.90
53294;DHT22;39181;53.440;5.644;2022-11-15T07:12:48;8.70;99.90
53294;DHT22;39181;53.440;5.644;2022-11-15T07:15:18;8.60;99.90
53294;DHT22;39181;53.440;5.644;2022-11-15T07:17:44;8.70;99.90
53294;DHT22;39181;53.440;5.644;2022-11-15T07:20:20;8.80;99.90
53294;DHT22;39181;53.440;5.644;2022-11-15T07:22:45;8.80;99.90
53294;DHT22;39181;53.440;5.644;2022-11-15T07:25:11;8.80;99.90
53294;DHT22;39181;53.440;5.644;2022-11-15T07:27:37;8.90;99.90
53294;DHT22;39181;53.440;5.644;2022-11-15T07:30:03;8.90;99.90
53294;DHT22;39181;53.440;5.644;2022-11-15T07:32:29;8.90;99.90
53294;DHT22;39181;53.440;5.644;2022-11-15T07:34:55;9.00;99.90
53294;DHT22;39181;53.440;5.644;2022-11-15T07:37:20;9.00;99.90
53294;DHT22;39181;53.440;5.644;2022-11-15T07:39:46;9.00;99.90
53294;DHT22;39181;53.440;5.644;2022-11-15T07:42:11;9.10;99.90
53294;DHT22;39181;53.440;5.644;2022-11-15T07:44:55;9.10;99.90
53294;DHT22;39181;53.440;5.644;2022-11-15T07:47:21;9.20;99.90
53294;DHT22;39181;53.440;5.644;2022-11-15T07:49:47;9.20;99.90
53294;DHT22;39181;53.440;5.644;2022-11-15T07:52:13;9.30;99.90
53294;DHT22;39181;53.440;5.644;2022-11-15T07:54:38;9.30;99.90
53294;DHT22;39181;53.440;5.644;2022-11-15T07:57:05;9.30;99.90
53294;DHT22;39181;53.440;5.644;2022-11-15T07:59:31;9.40;99.90
53294;DHT22;39181;53.440;5.644;2022-11-15T08:01:56;9.40;99.90
53294;DHT22;39181;53.440;5.644;2022-11-15T08:04:22;9.50;99.90
53294;DHT22;39181;53.440;5.644;2022-11-15T08:06:47;9.40;99.90
53294;DHT22;39181;53.440;5.644;2022-11-15T08:09:13;9.40;99.90
53294;DHT22;39181;53.440;5.644;2022-11-15T08:11:38;9.50;99.90
53294;DHT22;39181;53.440;5.644;2022-11-15T08:14:04;9.50;99.90
53294;DHT22;39181;53.440;5.644;2022-11-15T08:16:29;9.50;99.90
53294;DHT22;39181;53.440;5.644;2022-11-15T08:18:55;9.60;99.90
53294;DHT22;39181;53.440;5.644;2022-11-15T08:21:21;9.60;99.90
53294;DHT22;39181;53.440;5.644;2022-11-15T08:23:47;9.60;99.90
53294;DHT22;39181;53.440;5.644;2022-11-15T08:26:13;8.90;99.90
53294;DHT22;39181;53.440;5.644;2022-11-15T08:28:38;9.70;99.90
53294;DHT22;39181;53.440;5.644;2022-11-15T08:31:04;9.70;99.90
53294;DHT22;39181;53.440;5.644;2022-11-15T08:33:31;9.80;99.90
53294;DHT22;39181;53.440;5.644;2022-11-15T08:35:59;9.80;99.90
53294;DHT22;39181;53.440;5.644;2022-11-15T08:38:24;9.90;99.90
53294;DHT22;39181;53.440;5.644;2022-11-15T08:40:52;9.90;99.90
53294;DHT22;39181;53.440;5.644;2022-11-15T08:43:18;10.00;99.90
53294;DHT22;39181;53.440;5.644;2022-11-15T08:45:44;10.10;99.90
53294;DHT22;39181;53.440;5.644;2022-11-15T08:48:10;10.10;99.90
53294;DHT22;39181;53.440;5.644;2022-11-15T08:50:35;10.00;99.90
53294;DHT22;39181;53.440;5.644;2022-11-15T08:53:07;10.10;99.90
53294;DHT22;39181;53.440;5.644;2022-11-15T08:55:37;10.10;99.90
53294;DHT22;39181;53.440;5.644;2022-11-15T08:58:03;10.10;99.90
53294;DHT22;39181;53.440;5.644;2022-11-15T09:00:29;10.10;99.90
53294;DHT22;39181;53.440;5.644;2022-11-15T09:02:54;10.10;99.90
53294;DHT22;39181;53.440;5.644;2022-11-15T09:05:20;10.20;99.90
53294;DHT22;39181;53.440;5.644;2022-11-15T09:07:45;10.30;99.90
53294;DHT22;39181;53.440;5.644;2022-11-15T09:10:13;10.40;99.90
53294;DHT22;39181;53.440;5.644;2022-11-15T09:12:39;10.40;99.90
53294;DHT22;39181;53.440;5.644;2022-11-15T09:15:06;10.60;99.90
53294;DHT22;39181;53.440;5.644;2022-11-15T09:17:31;10.60;99.90
53294;DHT22;39181;53.440;5.644;2022-11-15T09:19:57;10.80;99.90
53294;DHT22;39181;53.440;5.644;2022-11-15T09:22:23;10.80;99.90
53294;DHT22;39181;53.440;5.644;2022-11-15T09:24:48;10.90;99.90
53294;DHT22;39181;53.440;5.644;2022-11-15T09:27:14;10.80;99.90
53294;DHT22;39181;53.440;5.644;2022-11-15T09:29:39;10.80;99.90
53294;DHT22;39181;53.440;5.644;2022-11-15T09:32:05;10.90;99.90
53294;DHT22;39181;53.440;5.644;2022-11-15T09:34:31;11.00;99.90
53294;DHT22;39181;53.440;5.644;2022-11-15T09:36:57;11.00;99.90
53294;DHT22;39181;53.440;5.644;2022-11-15T09:39:22;11.00;99.90
53294;DHT22;39181;53.440;5.644;2022-11-15T09:44:44;11.00;99.90
53294;DHT22;39181;53.440;5.644;2022-11-15T09:47:47;11.10;99.90
53294;DHT22;39181;53.440;5.644;2022-11-15T09:53:29;11.30;99.90
53294;DHT22;39181;53.440;5.644;2022-11-15T09:56:00;11.30;99.90
53294;DHT22;39181;53.440;5.644;2022-11-15T09:58:37;11.20;99.90
53294;DHT22;39181;53.440;5.644;2022-11-15T10:01:11;11.20;99.90
53294;DHT22;39181;53.440;5.644;2022-11-15T10:03:40;11.20;99.90
53294;DHT22;39181;53.440;5.644;2022-11-15T10:06:22;11.20;99.90
53294;DHT22;39181;53.440;5.644;2022-11-15T10:11:28;11.40;99.90
53294;DHT22;39181;53.440;5.644;2022-11-15T10:13:58;11.30;99.90
53294;DHT22;39181;53.440;5.644;2022-11-15T10:16:32;11.30;99.90
53294;DHT22;39181;53.440;5.644;2022-11-15T10:24:39;11.10;99.90
53294;DHT22;39181;53.440;5.644;2022-11-15T10:27:12;11.10;99.90
53294;DHT22;39181;53.440;5.644;2022-11-15T10:29:49;11.10;99.90
53294;DHT22;39181;53.440;5.644;2022-11-15T10:32:18;11.10;99.90
53294;DHT22;39181;53.440;5.644;2022-11-15T10:34:44;11.20;99.90
53294;DHT22;39181;53.440;5.644;2022-11-15T10:37:10;11.30;99.90
53294;DHT22;39181;53.440;5.644;2022-11-15T10:39:36;11.30;99.90
53294;DHT22;39181;53.440;5.644;2022-11-15T10:42:18;11.30;99.90
53294;DHT22;39181;53.440;5.644;2022-11-15T10:44:50;11.30;99.90
53294;DHT22;39181;53.440;5.644;2022-11-15T10:47:30;11.30;99.90
53294;DHT22;39181;53.440;5.644;2022-11-15T10:50:00;11.20;99.90
53294;DHT22;39181;53.440;5.644;2022-11-15T10:52:27;11.40;99.90
53294;DHT22;39181;53.440;5.644;2022-11-15T10:55:19;11.40;99.90
53294;DHT22;39181;53.440;5.644;2022-11-15T10:57:51;11.40;99.90
53294;DHT22;39181;53.440;5.644;2022-11-15T11:05:40;11.70;99.90
53294;DHT22;39181;53.440;5.644;2022-11-15T11:08:22;11.70;99.90
53294;DHT22;39181;53.440;5.644;2022-11-15T11:10:56;11.70;99.90
53294;DHT22;39181;53.440;5.644;2022-11-15T11:13:30;11.80;99.90
53294;DHT22;39181;53.440;5.644;2022-11-15T11:26:56;11.90;99.90
53294;DHT22;39181;53.440;5.644;2022-11-15T11:35:08;12.00;99.90
53294;DHT22;39181;53.440;5.644;2022-11-15T11:37:49;12.00;99.90
53294;DHT22;39181;53.440;5.644;2022-11-15T11:43:05;11.90;99.90
53294;DHT22;39181;53.440;5.644;2022-11-15T11:48:46;11.90;99.90
53294;DHT22;39181;53.440;5.644;2022-11-15T11:51:21;11.90;99.90
53294;DHT22;39181;53.440;5.644;2022-11-15T11:56:29;11.90;99.90
53294;DHT22;39181;53.440;5.644;2022-11-15T12:01:51;12.00;99.90
53294;DHT22;39181;53.440;5.644;2022-11-15T12:15:10;12.60;99.90
53294;DHT22;39181;53.440;5.644;2022-11-15T12:17:38;12.80;99.90
53294;DHT22;39181;53.440;5.644;2022-11-15T12:20:22;12.80;99.90
53294;DHT22;39181;53.440;5.644;2022-11-15T12:25:45;13.10;99.90
53294;DHT22;39181;53.440;5.644;2022-11-15T12:28:19;13.20;99.90
53294;DHT22;39181;53.440;5.644;2022-11-15T12:30:56;13.20;99.90
53294;DHT22;39181;53.440;5.644;2022-11-15T12:33:41;13.30;99.90
53294;DHT22;39181;53.440;5.644;2022-11-15T12:39:10;13.40;99.90
53294;DHT22;39181;53.440;5.644;2022-11-15T12:59:52;12.80;99.90
53294;DHT22;39181;53.440;5.644;2022-11-15T13:02:42;12.70;99.90
53294;DHT22;39181;53.440;5.644;2022-11-15T13:17:49;12.30;99.90
53294;DHT22;39181;53.440;5.644;2022-11-15T13:22:44;12.20;99.90
53294;DHT22;39181;53.440;5.644;2022-11-15T13:27:46;12.20;99.90
53294;DHT22;39181;53.440;5.644;2022-11-15T13:30:23;12.10;99.90
53294;DHT22;39181;53.440;5.644;2022-11-15T13:32:49;12.10;99.90
53294;DHT22;39181;53.440;5.644;2022-11-15T13:35:29;12.00;99.90
53294;DHT22;39181;53.440;5.644;2022-11-15T13:38:03;12.00;99.90
53294;DHT22;39181;53.440;5.644;2022-11-15T13:40:35;11.90;99.90
53294;DHT22;39181;53.440;5.644;2022-11-15T13:43:38;11.90;99.90
53294;DHT22;39181;53.440;5.644;2022-11-15T13:46:30;11.70;99.90
53294;DHT22;39181;53.440;5.644;2022-11-15T13:48:58;11.60;99.90
53294;DHT22;39181;53.440;5.644;2022-11-15T13:51:29;11.60;99.90
53294;DHT22;39181;53.440;5.644;2022-11-15T13:54:18;11.50;99.90
53294;DHT22;39181;53.440;5.644;2022-11-15T13:57:31;11.40;99.90
53294;DHT22;39181;53.440;5.644;2022-11-15T13:59:45;11.40;99.90
53294;DHT22;39181;53.440;5.644;2022-11-15T14:02:13;11.30;99.90
53294;DHT22;39181;53.440;5.644;2022-11-15T14:04:50;11.30;99.90
53294;DHT22;39181;53.440;5.644;2022-11-15T14:07:18;11.40;99.90
53294;DHT22;39181;53.440;5.644;2022-11-15T14:09:45;11.10;99.90
53294;DHT22;39181;53.440;5.644;2022-11-15T14:12:49;11.10;99.90
53294;DHT22;39181;53.440;5.644;2022-11-15T14:15:34;11.10;99.90
53294;DHT22;39181;53.440;5.644;2022-11-15T14:18:00;11.10;99.90
53294;DHT22;39181;53.440;5.644;2022-11-15T14:22:54;10.90;99.90
53294;DHT22;39181;53.440;5.644;2022-11-15T14:25:22;10.90;99.90
53294;DHT22;39181;53.440;5.644;2022-11-15T14:28:28;10.80;99.90
53294;DHT22;39181;53.440;5.644;2022-11-15T14:30:57;10.80;99.90
53294;DHT22;39181;53.440;5.644;2022-11-15T14:33:32;10.80;99.90
53294;DHT22;39181;53.440;5.644;2022-11-15T14:36:02;10.70;99.90
53294;DHT22;39181;53.440;5.644;2022-11-15T14:38:28;10.70;99.90
53294;DHT22;39181;53.440;5.644;2022-11-15T14:40:54;10.70;99.90
53294;DHT22;39181;53.440;5.644;2022-11-15T14:43:21;10.60;99.90
53294;DHT22;39181;53.440;5.644;2022-11-15T14:45:47;10.60;99.90
53294;DHT22;39181;53.440;5.644;2022-11-15T14:48:13;10.60;99.90
53294;DHT22;39181;53.440;5.644;2022-11-15T14:50:38;10.50;99.90
53294;DHT22;39181;53.440;5.644;2022-11-15T14:53:04;10.50;99.90
53294;DHT22;39181;53.440;5.644;2022-11-15T14:55:32;10.40;99.90
53294;DHT22;39181;53.440;5.644;2022-11-15T14:58:01;10.40;99.90
53294;DHT22;39181;53.440;5.644;2022-11-15T15:00:29;10.30;99.90
53294;DHT22;39181;53.440;5.644;2022-11-15T15:02:55;10.30;99.90
53294;DHT22;39181;53.440;5.644;2022-11-15T15:05:23;10.20;99.90
53294;DHT22;39181;53.440;5.644;2022-11-15T15:07:49;10.20;99.90
53294;DHT22;39181;53.440;5.644;2022-11-15T15:10:17;10.20;99.90
53294;DHT22;39181;53.440;5.644;2022-11-15T15:12:43;10.10;99.90
53294;DHT22;39181;53.440;5.644;2022-11-15T15:15:55;10.10;99.90
53294;DHT22;39181;53.440;5.644;2022-11-15T15:18:03;10.00;99.90
53294;DHT22;39181;53.440;5.644;2022-11-15T15:20:31;10.00;99.90
53294;DHT22;39181;53.440;5.644;2022-11-15T15:22:57;9.90;99.90
53294;DHT22;39181;53.440;5.644;2022-11-15T15:25:32;9.90;99.90
53294;DHT22;39181;53.440;5.644;2022-11-15T15:27:59;9.80;99.90
53294;DHT22;39181;53.440;5.644;2022-11-15T15:30:26;9.80;99.90
53294;DHT22;39181;53.440;5.644;2022-11-15T15:32:52;9.70;99.90
53294;DHT22;39181;53.440;5.644;2022-11-15T15:35:19;9.80;99.90
53294;DHT22;39181;53.440;5.644;2022-11-15T15:37:45;9.70;99.90
53294;DHT22;39181;53.440;5.644;2022-11-15T15:40:18;9.60;99.90
53294;DHT22;39181;53.440;5.644;2022-11-15T15:42:45;9.50;99.90
53294;DHT22;39181;53.440;5.644;2022-11-15T15:45:10;9.50;99.90
53294;DHT22;39181;53.440;5.644;2022-11-15T15:47:36;9.50;99.90
53294;DHT22;39181;53.440;5.644;2022-11-15T15:50:04;9.40;99.90
53294;DHT22;39181;53.440;5.644;2022-11-15T15:52:30;9.40;99.90
53294;DHT22;39181;53.440;5.644;2022-11-15T15:54:55;9.30;99.90
53294;DHT22;39181;53.440;5.644;2022-11-15T15:57:21;9.30;99.90
53294;DHT22;39181;53.440;5.644;2022-11-15T15:59:46;9.30;99.90
53294;DHT22;39181;53.440;5.644;2022-11-15T16:02:12;9.20;99.90
53294;DHT22;39181;53.440;5.644;2022-11-15T16:04:38;9.20;99.90
53294;DHT22;39181;53.440;5.644;2022-11-15T16:07:04;9.20;99.90
53294;DHT22;39181;53.440;5.644;2022-11-15T16:09:29;9.20;99.90
53294;DHT22;39181;53.440;5.644;2022-11-15T16:12:13;9.20;99.90
53294;DHT22;39181;53.440;5.644;2022-11-15T16:14:41;9.10;99.90
53294;DHT22;39181;53.440;5.644;2022-11-15T16:17:17;9.10;99.90
53294;DHT22;39181;53.440;5.644;2022-11-15T16:19:43;9.10;99.90
53294;DHT22;39181;53.440;5.644;2022-11-15T16:22:09;9.10;99.90
53294;DHT22;39181;53.440;5.644;2022-11-15T16:24:34;9.20;99.90
53294;DHT22;39181;53.440;5.644;2022-11-15T16:27:00;9.20;99.90
53294;DHT22;39181;53.440;5.644;2022-11-15T16:29:25;9.20;99.90
53294;DHT22;39181;53.440;5.644;2022-11-15T16:31:51;9.20;99.90
53294;DHT22;39181;53.440;5.644;2022-11-15T16:34:16;9.30;99.90
53294;DHT22;39181;53.440;5.644;2022-11-15T16:36:42;9.30;99.90
53294;DHT22;39181;53.440;5.644;2022-11-15T16:39:11;9.40;99.90
53294;DHT22;39181;53.440;5.644;2022-11-15T16:41:38;9.40;99.90
53294;DHT22;39181;53.440;5.644;2022-11-15T16:44:04;9.40;99.90
53294;DHT22;39181;53.440;5.644;2022-11-15T16:46:30;9.40;99.90
53294;DHT22;39181;53.440;5.644;2022-11-15T16:48:55;9.40;99.90
53294;DHT22;39181;53.440;5.644;2022-11-15T16:51:21;9.50;99.90
53294;DHT22;39181;53.440;5.644;2022-11-15T16:53:47;9.50;99.90
53294;DHT22;39181;53.440;5.644;2022-11-15T16:56:23;9.50;99.90
53294;DHT22;39181;53.440;5.644;2022-11-15T16:58:48;9.50;99.90
53294;DHT22;39181;53.440;5.644;2022-11-15T17:01:26;9.60;99.90
53294;DHT22;39181;53.440;5.644;2022-11-15T17:03:53;9.60;99.90
53294;DHT22;39181;53.440;5.644;2022-11-15T17:06:18;9.60;99.90
53294;DHT22;39181;53.440;5.644;2022-11-15T17:08:45;9.70;99.90
53294;DHT22;39181;53.440;5.644;2022-11-15T17:11:14;9.80;99.90
53294;DHT22;39181;53.440;5.644;2022-11-15T17:13:40;9.80;99.90
53294;DHT22;39181;53.440;5.644;2022-11-15T17:16:12;9.80;99.90
53294;DHT22;39181;53.440;5.644;2022-11-15T17:18:39;9.80;99.90
53294;DHT22;39181;53.440;5.644;2022-11-15T17:21:07;9.90;99.90
53294;DHT22;39181;53.440;5.644;2022-11-15T17:23:34;9.90;99.90
53294;DHT22;39181;53.440;5.644;2022-11-15T17:26:03;9.90;99.90
53294;DHT22;39181;53.440;5.644;2022-11-15T17:28:33;9.90;99.90
53294;DHT22;39181;53.440;5.644;2022-11-15T17:31:00;10.00;99.90
53294;DHT22;39181;53.440;5.644;2022-11-15T17:33:26;10.00;99.90
53294;DHT22;39181;53.440;5.644;2022-11-15T17:36:03;9.90;99.90
53294;DHT22;39181;53.440;5.644;2022-11-15T17:38:29;9.90;99.90
53294;DHT22;39181;53.440;5.644;2022-11-15T17:41:01;9.90;99.90
53294;DHT22;39181;53.440;5.644;2022-11-15T17:43:28;10.00;99.90
53294;DHT22;39181;53.440;5.644;2022-11-15T17:45:54;10.00;99.90
53294;DHT22;39181;53.440;5.644;2022-11-15T17:48:19;10.00;99.90
53294;DHT22;39181;53.440;5.644;2022-11-15T17:51:03;9.90;99.90